createdAt,value
2018-07-17T00:00:40.636Z,3.8
2018-07-17T00:03:40.541Z,3.8
2018-07-17T00:06:40.377Z,3.8
2018-07-17T00:09:41.634Z,3.8
2018-07-17T00:12:41.591Z,3.8
2018-07-17T00:15:40.679Z,3.8
2018-07-17T00:18:40.581Z,3.8
2018-07-17T00:21:40.790Z,3.8
2018-07-17T00:24:40.540Z,3.8
2018-07-17T00:27:40.516Z,3.8
2018-07-17T00:30:40.663Z,3.8
2018-07-17T00:33:40.574Z,3.8
2018-07-17T00:36:40.448Z,3.8
2018-07-17T00:39:40.711Z,3.8
2018-07-17T00:42:40.605Z,3.8
2018-07-17T00:45:40.594Z,3.8
2018-07-17T00:48:40.583Z,3.8
2018-07-17T00:51:40.566Z,3.8
2018-07-17T00:54:40.628Z,3.8
2018-07-17T00:57:40.442Z,3.8
2018-07-17T01:00:40.564Z,3.6
2018-07-17T01:03:40.563Z,3.6
2018-07-17T01:06:50.745Z,3.6
2018-07-17T01:09:40.774Z,3.6
2018-07-17T01:12:40.640Z,3.6
2018-07-17T01:15:40.458Z,3.6
2018-07-17T01:18:40.488Z,3.6
2018-07-17T01:21:40.740Z,3.6
2018-07-17T01:24:40.521Z,3.6
2018-07-17T01:27:40.484Z,3.6
2018-07-17T01:30:40.695Z,3.6
2018-07-17T01:33:40.689Z,3.6
2018-07-17T01:36:40.680Z,3.6
2018-07-17T01:39:40.571Z,3.6
2018-07-17T01:42:40.713Z,3.6
2018-07-17T01:45:40.735Z,3.6
2018-07-17T01:48:40.701Z,3.6
2018-07-17T01:51:40.461Z,3.6
2018-07-17T01:54:40.570Z,3.6
2018-07-17T01:57:40.608Z,3.6
2018-07-17T02:00:40.434Z,3.5
2018-07-17T02:03:40.763Z,3.5
2018-07-17T02:06:40.603Z,3.5
2018-07-17T02:09:40.490Z,3.5
2018-07-17T02:12:40.439Z,3.5
2018-07-17T02:15:40.723Z,3.5
2018-07-17T02:18:41.305Z,3.5
2018-07-17T02:21:40.435Z,3.5
2018-07-17T02:24:40.637Z,3.5
2018-07-17T02:27:40.876Z,3.5
2018-07-17T02:30:40.404Z,3.5
2018-07-17T02:33:40.816Z,3.5
2018-07-17T02:36:40.975Z,3.5
2018-07-17T02:39:41.008Z,3.5
2018-07-17T02:42:40.521Z,3.5
2018-07-17T02:45:40.496Z,3.5
2018-07-17T02:48:40.668Z,3.5
2018-07-17T02:51:40.817Z,3.5
2018-07-17T02:54:40.538Z,3.5
2018-07-17T02:57:40.720Z,3.5
2018-07-17T03:00:40.410Z,3.5
2018-07-17T03:03:40.616Z,3.5
2018-07-17T03:06:40.697Z,3.5
2018-07-17T03:09:40.617Z,3.5
2018-07-17T03:12:40.572Z,3.5
2018-07-17T03:15:40.417Z,3.5
2018-07-17T03:18:40.438Z,3.5
2018-07-17T03:21:40.572Z,3.5
2018-07-17T03:24:50.443Z,3.5
2018-07-17T03:27:40.467Z,3.5
2018-07-17T03:30:40.519Z,3.5
2018-07-17T03:33:40.863Z,3.5
2018-07-17T03:36:40.350Z,3.5
2018-07-17T03:39:40.550Z,3.5
2018-07-17T03:42:40.544Z,3.5
2018-07-17T03:45:40.399Z,3.5
2018-07-17T03:48:40.559Z,3.5
2018-07-17T03:51:40.539Z,3.5
2018-07-17T03:54:40.787Z,3.5
2018-07-17T03:57:40.515Z,3.5
2018-07-17T04:00:40.539Z,3.4
2018-07-17T04:03:40.619Z,3.4
2018-07-17T04:06:40.547Z,3.4
2018-07-17T04:09:40.490Z,3.4
2018-07-17T04:12:40.543Z,3.4
2018-07-17T04:15:40.437Z,3.4
2018-07-17T04:18:40.881Z,3.4
2018-07-17T04:21:40.456Z,3.4
2018-07-17T04:24:40.576Z,3.4
2018-07-17T04:27:40.845Z,3.4
2018-07-17T04:30:40.344Z,3.4
2018-07-17T04:33:40.357Z,3.4
2018-07-17T04:36:40.445Z,3.4
2018-07-17T04:39:40.869Z,3.4
2018-07-17T04:42:40.558Z,3.4
2018-07-17T04:45:40.756Z,3.4
2018-07-17T04:48:40.460Z,3.4
2018-07-17T04:51:40.523Z,3.4
2018-07-17T04:54:40.530Z,3.4
2018-07-17T04:57:40.472Z,3.4
2018-07-17T05:00:40.417Z,3.5
2018-07-17T05:03:40.709Z,3.5
2018-07-17T05:06:40.498Z,3.5
2018-07-17T05:09:40.328Z,3.5
2018-07-17T05:12:40.573Z,3.5
2018-07-17T05:15:40.750Z,3.5
2018-07-17T05:18:50.476Z,3.5
2018-07-17T05:21:40.510Z,3.5
2018-07-17T05:24:40.998Z,3.5
2018-07-17T05:27:40.557Z,3.5
2018-07-17T05:30:40.262Z,3.5
2018-07-17T05:33:40.598Z,3.5
2018-07-17T05:36:40.414Z,3.5
2018-07-17T05:39:40.399Z,3.5
2018-07-17T05:42:40.502Z,3.5
2018-07-17T05:45:40.444Z,3.5
2018-07-17T05:48:40.548Z,3.5
2018-07-17T05:51:40.586Z,3.5
2018-07-17T05:54:40.451Z,3.5
2018-07-17T05:57:40.681Z,3.5
2018-07-17T06:00:40.364Z,3.7
2018-07-17T06:03:40.367Z,3.7
2018-07-17T06:06:40.569Z,3.7
2018-07-17T06:09:40.582Z,3.7
2018-07-17T07:02:03.693Z,4.8
2018-07-17T07:05:03.778Z,4.8
2018-07-17T07:08:03.879Z,4.8
2018-07-17T07:11:03.784Z,4.8
2018-07-17T07:14:03.797Z,4.8
2018-07-17T07:17:03.726Z,4.8
2018-07-17T07:20:03.701Z,4.8
2018-07-17T07:23:03.829Z,4.8
2018-07-17T07:26:04.078Z,4.8
2018-07-17T07:29:03.883Z,4.8
2018-07-17T07:32:04.006Z,4.8
2018-07-17T07:35:03.897Z,4.8
2018-07-17T07:38:03.756Z,4.8
2018-07-17T07:41:03.915Z,4.8
2018-07-17T07:44:04.087Z,4.8
2018-07-17T07:47:03.717Z,4.8
2018-07-17T07:50:03.953Z,4.8
2018-07-17T07:53:03.868Z,4.8
2018-07-17T07:56:04.135Z,4.8
2018-07-17T07:59:03.916Z,4.8
2018-07-17T08:02:03.904Z,4.7
2018-07-17T08:05:03.904Z,4.7
2018-07-17T08:08:03.891Z,4.7
2018-07-17T08:11:03.871Z,4.7
2018-07-17T08:14:03.976Z,4.7
2018-07-17T08:17:03.808Z,4.7
2018-07-17T08:20:04.033Z,4.7
2018-07-17T08:23:03.692Z,4.7
2018-07-17T08:26:03.958Z,4.7
2018-07-17T08:29:03.921Z,4.7
2018-07-17T08:32:03.966Z,4.7
2018-07-17T08:35:03.942Z,4.7
2018-07-17T08:38:03.873Z,4.7
2018-07-17T08:41:03.789Z,4.7
2018-07-17T08:44:03.792Z,4.7
2018-07-17T08:47:03.851Z,4.7
2018-07-17T08:50:03.828Z,4.7
2018-07-17T08:53:03.823Z,4.7
2018-07-17T08:56:04.047Z,4.7
2018-07-17T08:59:03.921Z,4.7
2018-07-17T09:02:04.018Z,4.5
2018-07-17T09:05:03.890Z,4.5
2018-07-17T09:08:03.915Z,4.5
2018-07-17T09:11:03.826Z,4.5
2018-07-17T09:14:03.893Z,4.5
2018-07-17T09:17:04.056Z,4.5
2018-07-17T09:20:03.875Z,4.5
2018-07-17T09:23:03.875Z,4.5
2018-07-17T09:26:03.768Z,4.5
2018-07-17T09:29:03.895Z,4.5
2018-07-17T09:32:03.717Z,4.5
2018-07-17T09:35:04.048Z,4.5
2018-07-17T09:38:03.983Z,4.5
2018-07-17T09:41:03.937Z,4.5
2018-07-17T09:44:03.880Z,4.5
2018-07-17T09:47:03.748Z,4.5
2018-07-17T09:50:03.929Z,4.5
2018-07-17T09:53:03.845Z,4.5
2018-07-17T09:56:03.768Z,4.5
2018-07-17T09:59:03.885Z,4.5
2018-07-17T10:02:03.828Z,4.4
2018-07-17T10:05:03.802Z,4.4
2018-07-17T10:08:03.925Z,4.4
2018-07-17T10:11:03.827Z,4.4
2018-07-17T10:14:03.909Z,4.4
2018-07-17T10:17:04.016Z,4.4
2018-07-17T10:20:05.216Z,4.4
2018-07-17T10:23:04.133Z,4.4
2018-07-17T10:26:03.851Z,4.4
2018-07-17T10:29:03.805Z,4.4
2018-07-17T10:32:04.551Z,4.4
2018-07-17T10:35:03.832Z,4.4
2018-07-17T10:38:03.902Z,4.4
2018-07-17T10:41:03.857Z,4.4
2018-07-17T10:44:03.825Z,4.4
2018-07-17T10:47:03.839Z,4.4
2018-07-17T10:50:04.105Z,4.4
2018-07-17T10:53:03.985Z,4.4
2018-07-17T10:56:04.001Z,4.4
2018-07-17T10:59:03.736Z,4.4
2018-07-17T11:02:03.814Z,4.3
2018-07-17T11:05:03.862Z,4.3
2018-07-17T11:08:03.859Z,4.3
2018-07-17T11:11:04.019Z,4.3
2018-07-17T11:14:03.985Z,4.3
2018-07-17T11:17:03.872Z,4.3
2018-07-17T11:20:03.841Z,4.3
2018-07-17T11:23:04.031Z,4.3
2018-07-17T11:26:03.891Z,4.3
2018-07-17T11:29:03.747Z,4.3
2018-07-17T11:32:05.167Z,4.3
2018-07-17T11:35:03.955Z,4.3
2018-07-17T11:38:04.012Z,4.3
2018-07-17T11:41:03.760Z,4.3
2018-07-17T11:44:03.971Z,4.3
2018-07-17T11:47:03.936Z,4.3
2018-07-17T11:50:03.767Z,4.3
2018-07-17T11:53:03.896Z,4.3
2018-07-17T11:56:03.964Z,4.3
2018-07-17T11:59:05.739Z,4.3
2018-07-17T12:02:03.838Z,4.6
2018-07-17T12:05:03.818Z,4.6
2018-07-17T12:08:03.877Z,4.6
2018-07-17T12:11:03.709Z,4.6
2018-07-17T12:14:03.931Z,4.6
2018-07-17T12:17:03.842Z,4.6
2018-07-17T12:20:06.797Z,4.6
2018-07-17T12:23:03.914Z,4.6
2018-07-17T12:26:03.788Z,4.6
2018-07-17T12:29:03.796Z,4.6
2018-07-17T12:32:03.982Z,4.6
2018-07-17T12:35:04.438Z,4.6
2018-07-17T12:38:03.831Z,4.6
2018-07-17T12:41:03.907Z,4.6
2018-07-17T12:44:03.777Z,4.6
2018-07-17T12:47:03.792Z,4.6
2018-07-17T12:50:05.830Z,4.6
2018-07-17T12:53:03.888Z,4.6
2018-07-17T12:56:03.998Z,4.6
2018-07-17T12:59:03.886Z,4.6
2018-07-17T13:02:03.934Z,4.6
2018-07-17T13:05:03.796Z,4.6
2018-07-17T13:08:03.699Z,4.6
2018-07-17T13:11:03.984Z,4.6
2018-07-17T13:14:03.955Z,4.6
2018-07-17T13:17:03.834Z,4.6
2018-07-17T13:20:03.980Z,4.6
2018-07-17T13:23:03.817Z,4.6
2018-07-17T13:26:03.787Z,4.6
2018-07-17T13:29:03.849Z,4.6
2018-07-17T13:32:03.962Z,4.6
2018-07-17T13:35:03.654Z,4.6
2018-07-17T13:38:03.656Z,4.6
2018-07-17T13:41:03.772Z,4.6
2018-07-17T13:44:03.899Z,4.6
2018-07-17T13:47:03.963Z,4.6
2018-07-17T13:50:04.570Z,4.6
2018-07-17T13:53:03.702Z,4.6
2018-07-17T13:56:03.990Z,4.6
2018-07-17T13:59:03.710Z,4.6
2018-07-17T14:02:03.661Z,4.5
2018-07-17T14:05:03.631Z,4.5
2018-07-17T14:08:03.907Z,4.5
2018-07-17T14:11:03.819Z,4.5
2018-07-17T14:14:03.912Z,4.5
2018-07-17T14:17:03.846Z,4.5
2018-07-17T14:20:03.764Z,4.5
2018-07-17T14:23:04.017Z,4.5
2018-07-17T14:26:03.803Z,4.5
2018-07-17T14:29:03.827Z,4.5
2018-07-17T14:32:03.625Z,4.5
2018-07-17T14:35:03.974Z,4.5
2018-07-17T14:38:03.640Z,4.5
2018-07-17T14:41:03.863Z,4.5
2018-07-17T14:44:03.861Z,4.5
2018-07-17T14:47:03.922Z,4.5
2018-07-17T14:50:03.713Z,4.5
2018-07-17T14:53:03.742Z,4.5
2018-07-17T14:56:03.722Z,4.5
2018-07-17T14:59:03.839Z,4.5
2018-07-17T15:02:03.967Z,4.4
2018-07-17T15:05:03.970Z,4.4
2018-07-17T15:08:03.983Z,4.4
2018-07-17T15:11:04.145Z,4.4
2018-07-17T15:14:03.966Z,4.4
2018-07-17T15:17:03.894Z,4.4
2018-07-17T15:20:03.871Z,4.4
2018-07-17T15:23:03.936Z,4.4
2018-07-17T15:26:03.964Z,4.4
2018-07-17T15:29:04.048Z,4.4
2018-07-17T15:32:04.725Z,4.4
2018-07-17T15:35:04.660Z,4.4
2018-07-17T15:38:03.823Z,4.4
2018-07-17T15:41:04.075Z,4.4
2018-07-17T15:44:04.210Z,4.4
2018-07-17T15:47:04.246Z,4.4
2018-07-17T15:50:04.175Z,4.4
2018-07-17T15:53:04.177Z,4.4
2018-07-17T15:56:03.802Z,4.4
2018-07-17T15:59:03.658Z,4.4
2018-07-17T16:02:03.819Z,4.3
2018-07-17T16:05:03.810Z,4.3
2018-07-17T16:08:03.952Z,4.3
2018-07-17T16:11:03.994Z,4.3
2018-07-17T16:14:09.681Z,4.3
2018-07-17T16:17:03.911Z,4.3
2018-07-17T16:20:03.752Z,4.3
2018-07-17T16:23:03.775Z,4.3
2018-07-17T16:26:03.774Z,4.3
2018-07-17T16:29:03.651Z,4.3
2018-07-17T16:32:03.941Z,4.3
2018-07-17T16:35:03.649Z,4.3
2018-07-17T16:38:03.695Z,4.3
2018-07-17T16:41:03.839Z,4.3
2018-07-17T16:44:04.144Z,4.3
2018-07-17T16:47:03.870Z,4.3
2018-07-17T16:50:03.864Z,4.3
2018-07-17T16:53:03.740Z,4.3
2018-07-17T16:56:03.780Z,4.3
2018-07-17T16:59:03.895Z,4.3
2018-07-17T17:02:03.797Z,4.3
2018-07-17T17:05:03.582Z,4.3
2018-07-17T17:08:03.709Z,4.3
2018-07-17T17:11:03.755Z,4.3
2018-07-17T17:14:03.855Z,4.3
2018-07-17T17:17:03.776Z,4.3
2018-07-17T17:20:03.821Z,4.3
2018-07-17T17:23:03.687Z,4.3
2018-07-17T17:26:03.611Z,4.3
2018-07-17T17:29:03.766Z,4.3
2018-07-17T17:32:03.751Z,4.3
2018-07-17T17:35:03.812Z,4.3
2018-07-17T17:38:03.743Z,4.3
2018-07-17T17:41:03.936Z,4.3
2018-07-17T17:44:03.901Z,4.3
2018-07-17T17:47:03.952Z,4.3
2018-07-17T17:50:03.919Z,4.3
2018-07-17T17:53:03.836Z,4.3
2018-07-17T17:56:03.687Z,4.3
2018-07-17T17:59:03.873Z,4.3
2018-07-17T18:02:03.929Z,4.2
2018-07-17T18:05:03.625Z,4.2
2018-07-17T18:08:03.647Z,4.2
2018-07-17T18:11:03.707Z,4.2
2018-07-17T18:14:04.021Z,4.2
2018-07-17T18:17:03.878Z,4.2
2018-07-17T18:20:03.923Z,4.2
2018-07-17T18:23:03.831Z,4.2
2018-07-17T18:26:03.690Z,4.2
2018-07-17T18:29:03.662Z,4.2
2018-07-17T18:32:03.772Z,4.2
2018-07-17T18:35:03.810Z,4.2
2018-07-17T18:38:03.843Z,4.2
2018-07-17T18:41:03.832Z,4.2
2018-07-17T18:44:03.665Z,4.2
2018-07-17T18:47:03.643Z,4.2
2018-07-17T18:50:13.655Z,4.2
2018-07-17T18:53:03.871Z,4.2
2018-07-17T18:56:03.784Z,4.2
2018-07-17T18:59:03.641Z,4.2
2018-07-17T19:02:04.092Z,4.2
2018-07-17T19:05:03.549Z,4.2
2018-07-17T19:08:03.864Z,4.2
2018-07-17T19:11:04.055Z,4.2
2018-07-17T19:14:03.900Z,4.2
2018-07-17T19:17:03.707Z,4.2
2018-07-17T19:20:03.781Z,4.2
2018-07-17T19:23:03.561Z,4.2
2018-07-17T19:26:03.601Z,4.2
2018-07-17T19:29:04.574Z,4.2
2018-07-17T19:32:03.572Z,4.2
2018-07-17T19:35:03.556Z,4.2
2018-07-17T19:38:03.949Z,4.2
2018-07-17T19:41:03.753Z,4.2
2018-07-17T19:44:03.664Z,4.2
2018-07-17T19:47:03.563Z,4.2
2018-07-17T19:50:03.697Z,4.2
2018-07-17T19:53:03.914Z,4.2
2018-07-17T19:56:03.757Z,4.2
2018-07-17T19:59:03.693Z,4.2
2018-07-17T20:02:03.599Z,4.2
2018-07-17T20:05:03.594Z,4.2
2018-07-17T20:08:04.438Z,4.2
2018-07-17T20:11:03.830Z,4.2
2018-07-17T20:14:03.592Z,4.2
2018-07-17T20:17:03.926Z,4.2
2018-07-17T20:20:03.766Z,4.2
2018-07-17T20:23:03.869Z,4.2
2018-07-17T20:26:03.766Z,4.2
2018-07-17T20:29:03.995Z,4.2
2018-07-17T20:32:03.675Z,4.2
2018-07-17T20:35:13.765Z,4.2
2018-07-17T20:38:03.910Z,4.2
2018-07-17T20:41:03.645Z,4.2
2018-07-17T20:44:03.691Z,4.2
2018-07-17T20:47:03.852Z,4.2
2018-07-17T20:50:03.854Z,4.2
2018-07-17T20:53:05.182Z,4.2
2018-07-17T20:56:03.613Z,4.2
2018-07-17T20:59:03.697Z,4.2
2018-07-17T21:02:03.535Z,4.2
2018-07-17T21:05:04.205Z,4.2
2018-07-17T21:08:03.976Z,4.2
2018-07-17T21:11:03.825Z,4.2
2018-07-17T21:14:03.676Z,4.2
2018-07-17T21:17:03.614Z,4.2
2018-07-17T21:20:03.592Z,4.2
2018-07-17T21:23:03.630Z,4.2
2018-07-17T21:26:03.725Z,4.2
2018-07-17T21:29:03.742Z,4.2
2018-07-17T21:32:03.799Z,4.2
2018-07-17T21:35:03.778Z,4.2
2018-07-17T21:38:03.580Z,4.2
2018-07-17T21:41:03.637Z,4.2
2018-07-17T21:44:03.757Z,4.2
2018-07-17T21:47:13.737Z,4.2
2018-07-17T21:50:03.849Z,4.2
2018-07-17T21:53:03.636Z,4.2
2018-07-17T21:56:03.658Z,4.2
2018-07-17T21:59:03.664Z,4.2
2018-07-17T22:02:03.930Z,4.2
2018-07-17T22:05:04.084Z,4.2
2018-07-17T22:08:03.743Z,4.2
2018-07-17T22:11:03.761Z,4.2
2018-07-17T22:14:03.481Z,4.2
2018-07-17T22:17:03.728Z,4.2
2018-07-17T22:20:03.658Z,4.2
2018-07-17T22:23:03.523Z,4.2
2018-07-17T22:26:03.667Z,4.2
2018-07-17T22:29:03.696Z,4.2
2018-07-17T22:32:03.557Z,4.2
2018-07-17T22:35:03.742Z,4.2
2018-07-17T22:38:03.752Z,4.2
2018-07-17T22:41:03.648Z,4.2
2018-07-17T22:44:03.858Z,4.2
2018-07-17T22:47:03.715Z,4.2
2018-07-17T22:50:03.609Z,4.2
2018-07-17T22:53:03.909Z,4.2
2018-07-17T22:56:03.549Z,4.2
2018-07-17T22:59:03.550Z,4.2
2018-07-17T23:02:04.489Z,4.1
2018-07-17T23:05:03.673Z,4.1
2018-07-17T23:08:03.560Z,4.1
2018-07-17T23:11:03.820Z,4.1
2018-07-17T23:14:03.603Z,4.1
2018-07-17T23:17:03.503Z,4.1
2018-07-17T23:20:03.608Z,4.1
2018-07-17T23:23:03.718Z,4.1
2018-07-17T23:26:03.821Z,4.1
2018-07-17T23:29:03.500Z,4.1
2018-07-17T23:32:03.525Z,4.1
2018-07-17T23:35:03.517Z,4.1
2018-07-17T23:38:03.634Z,4.1
2018-07-17T23:41:03.522Z,4.1
2018-07-17T23:44:03.567Z,4.1
2018-07-17T23:47:03.734Z,4.1
2018-07-17T23:50:03.570Z,4.1
2018-07-17T23:53:03.538Z,4.1
2018-07-17T23:56:03.847Z,4.1
2018-07-17T23:59:03.687Z,4.1
